createdAt,value
2023-03-22T00:01:11.687Z,94484.00
2023-03-22T00:05:11.813Z,94482.00
2023-03-22T00:09:11.864Z,94478.00
2023-03-22T00:13:11.974Z,94480.00
2023-03-22T00:17:12.073Z,94476.00
2023-03-22T00:21:12.196Z,94480.00
2023-03-22T00:25:12.299Z,94476.00
2023-03-22T00:29:12.365Z,94474.00
2023-03-22T00:33:12.514Z,94476.00
2023-03-22T00:37:12.605Z,94478.00
2023-03-22T00:41:12.712Z,94476.00
2023-03-22T00:45:12.848Z,94474.00
2023-03-22T00:49:12.955Z,94464.00
2023-03-22T00:53:13.081Z,94466.00
2023-03-22T00:57:13.204Z,94462.00
2023-03-22T01:01:13.397Z,94462.00
2023-03-22T01:05:13.425Z,94460.00
2023-03-22T01:09:13.568Z,94456.00
2023-03-22T01:13:13.713Z,94454.00
2023-03-22T01:17:13.866Z,94452.00
2023-03-22T01:21:13.958Z,94444.00
2023-03-22T01:25:14.117Z,94441.00
2023-03-22T01:29:14.219Z,94442.00
2023-03-22T01:33:14.360Z,94446.00
2023-03-22T01:37:14.515Z,94446.00
2023-03-22T01:41:14.643Z,94439.00
2023-03-22T01:45:14.800Z,94441.00
2023-03-22T01:49:14.933Z,94439.00
2023-03-22T01:53:15.032Z,94441.00
2023-03-22T01:57:15.152Z,94441.00
2023-03-22T02:01:15.284Z,94441.00
2023-03-22T02:05:15.383Z,94441.00
2023-03-22T02:09:15.509Z,94446.00
2023-03-22T02:13:15.599Z,94450.00
2023-03-22T02:17:15.690Z,94456.00
2023-03-22T02:21:15.789Z,94460.00
2023-03-22T02:25:15.912Z,94456.00
2023-03-22T02:29:16.013Z,94462.00
2023-03-22T02:33:16.111Z,94460.00
2023-03-22T02:37:16.241Z,94462.00
2023-03-22T02:41:16.321Z,94464.00
2023-03-22T02:45:16.452Z,94452.00
2023-03-22T02:49:16.561Z,94454.00
2023-03-22T02:53:16.666Z,94452.00
2023-03-22T02:57:16.784Z,94456.00
2023-03-22T03:01:16.972Z,94454.00
2023-03-22T03:05:17.029Z,94452.00
2023-03-22T03:09:17.123Z,94452.00
2023-03-22T03:13:17.268Z,94446.00
2023-03-22T03:17:17.395Z,94444.00
2023-03-22T03:21:17.554Z,94439.00
2023-03-22T03:25:17.669Z,94441.00
2023-03-22T03:29:17.804Z,94441.00
2023-03-22T03:33:17.935Z,94442.00
2023-03-22T03:37:18.088Z,94446.00
2023-03-22T03:41:18.213Z,94442.00
2023-03-22T03:45:18.339Z,94442.00
2023-03-22T03:49:18.501Z,94441.00
2023-03-22T03:53:18.618Z,94441.00
2023-03-22T03:57:18.781Z,94441.00
2023-03-22T04:01:18.884Z,94433.00
2023-03-22T04:05:19.026Z,94431.00
2023-03-22T04:09:19.142Z,94429.00
2023-03-22T04:13:19.273Z,94431.00
2023-03-22T04:17:19.410Z,94431.00
2023-03-22T04:21:19.535Z,94433.00
2023-03-22T04:25:19.680Z,94431.00
2023-03-22T04:29:19.816Z,94431.00
2023-03-22T04:33:19.957Z,94431.00
2023-03-22T04:37:20.096Z,94435.00
2023-03-22T04:41:20.236Z,94431.00
2023-03-22T04:45:20.370Z,94435.00
2023-03-22T04:49:20.523Z,94429.00
2023-03-22T04:53:20.658Z,94427.00
2023-03-22T04:57:20.803Z,94429.00
2023-03-22T05:01:20.974Z,94433.00
2023-03-22T05:05:21.074Z,94433.00
2023-03-22T05:09:23.348Z,94441.00
2023-03-22T05:13:21.335Z,94439.00
2023-03-22T05:17:21.529Z,94444.00
2023-03-22T05:21:21.667Z,94444.00
2023-03-22T05:25:21.850Z,94444.00
2023-03-22T05:29:21.954Z,94442.00
2023-03-22T05:33:22.109Z,94442.00
2023-03-22T05:37:22.289Z,94446.00
2023-03-22T05:41:22.413Z,94442.00
2023-03-22T05:45:22.536Z,94442.00
2023-03-22T05:49:22.675Z,94452.00
2023-03-22T05:53:22.773Z,94456.00
2023-03-22T05:57:22.852Z,94460.00
2023-03-22T06:01:22.952Z,94464.00
2023-03-22T06:05:22.992Z,94458.00
2023-03-22T06:09:23.054Z,94454.00
2023-03-22T06:13:23.213Z,94458.00
2023-03-22T06:17:23.215Z,94464.00
2023-03-22T06:21:23.204Z,94472.00
2023-03-22T06:25:23.230Z,94468.00
2023-03-22T06:29:23.253Z,94468.00
2023-03-22T06:33:23.300Z,94476.00
2023-03-22T06:37:23.311Z,94474.00
2023-03-22T06:41:23.621Z,94476.00
2023-03-22T06:45:23.634Z,94474.00
2023-03-22T06:49:23.630Z,94478.00
2023-03-22T06:53:23.649Z,94470.00
2023-03-22T06:57:23.835Z,94464.00
2023-03-22T07:01:24.166Z,94464.00
2023-03-22T07:05:23.790Z,94460.00
2023-03-22T07:09:23.726Z,94462.00
2023-03-22T07:13:23.694Z,94466.00
2023-03-22T07:17:23.662Z,94468.00
2023-03-22T07:21:23.630Z,94466.00
2023-03-22T07:25:23.607Z,94468.00
2023-03-22T07:29:23.539Z,94464.00
2023-03-22T07:33:23.530Z,94454.00
2023-03-22T07:37:23.749Z,94452.00
2023-03-22T07:41:23.999Z,94450.00
2023-03-22T07:45:24.194Z,94448.00
2023-03-22T07:49:24.324Z,94442.00
2023-03-22T07:53:24.504Z,94435.00
2023-03-22T07:57:24.665Z,94437.00
2023-03-22T08:01:24.908Z,94439.00
2023-03-22T08:05:24.931Z,94437.00
2023-03-22T08:09:25.066Z,94435.00
2023-03-22T08:13:25.180Z,94435.00
2023-03-22T08:17:25.274Z,94437.00
2023-03-22T08:21:25.475Z,94435.00
2023-03-22T08:25:25.488Z,94437.00
2023-03-22T08:29:25.709Z,94431.00
2023-03-22T08:33:25.685Z,94429.00
2023-03-22T08:37:25.824Z,94423.00
2023-03-22T08:41:26.188Z,94419.00
2023-03-22T08:45:26.040Z,94415.00
2023-03-22T08:49:26.168Z,94405.00
2023-03-22T08:53:26.296Z,94399.00
2023-03-22T08:57:26.449Z,94392.00
2023-03-22T09:01:26.691Z,94380.00
2023-03-22T09:05:26.775Z,94374.00
2023-03-22T09:09:26.895Z,94364.00
2023-03-22T09:13:26.922Z,94366.00
2023-03-22T09:17:27.206Z,94358.00
2023-03-22T09:21:26.908Z,94354.00
2023-03-22T09:25:27.089Z,94343.00
2023-03-22T09:29:27.221Z,94337.00
2023-03-22T09:33:27.468Z,94325.00
2023-03-22T09:37:27.732Z,94319.00
2023-03-22T09:41:27.719Z,94317.00
2023-03-22T09:45:27.936Z,94313.00
2023-03-22T09:49:28.047Z,94311.00
2023-03-22T09:53:28.053Z,94302.00
2023-03-22T09:57:28.229Z,94294.00
2023-03-22T10:01:28.424Z,94290.00
2023-03-22T10:05:28.268Z,94284.00
2023-03-22T10:09:28.403Z,94276.00
2023-03-22T10:13:28.370Z,94274.00
2023-03-22T10:17:28.392Z,94264.00
2023-03-22T10:21:28.285Z,94258.00
2023-03-22T10:25:28.400Z,94245.00
2023-03-22T10:29:28.732Z,94243.00
2023-03-22T10:33:28.180Z,94239.00
2023-03-22T10:37:28.160Z,94237.00
2023-03-22T10:41:28.132Z,94233.00
2023-03-22T10:45:28.096Z,94231.00
2023-03-22T10:49:28.091Z,94231.00
2023-03-22T10:53:28.238Z,94225.00
2023-03-22T10:57:28.243Z,94215.00
2023-03-22T11:01:28.366Z,94208.00
2023-03-22T11:05:28.346Z,94204.00
2023-03-22T11:09:28.473Z,94194.00
2023-03-22T11:13:28.752Z,94190.00
2023-03-22T11:17:29.236Z,94184.00
2023-03-22T11:21:28.895Z,94172.00
2023-03-22T11:25:29.077Z,94172.00
2023-03-22T11:29:29.193Z,94160.00
2023-03-22T11:33:29.370Z,94154.00
2023-03-22T11:37:29.596Z,94147.00
2023-03-22T11:41:29.800Z,94133.00
2023-03-22T11:45:30.062Z,94119.00
2023-03-22T11:49:30.039Z,94114.00
2023-03-22T11:53:30.172Z,94114.00
2023-03-22T11:57:30.404Z,94112.00
2023-03-22T12:01:30.344Z,94104.00
2023-03-22T12:05:30.774Z,94096.00
2023-03-22T12:09:30.783Z,94094.00
2023-03-22T12:13:30.313Z,94084.00
2023-03-22T12:17:30.321Z,94074.00
2023-03-22T12:21:30.226Z,94068.00
2023-03-22T12:25:30.271Z,94061.00
2023-03-22T12:29:30.095Z,94055.00
2023-03-22T12:33:30.148Z,94049.00
2023-03-22T12:37:31.388Z,94035.00
2023-03-22T12:41:30.008Z,94029.00
2023-03-22T12:45:30.011Z,94020.00
2023-03-22T12:49:29.918Z,94017.00
2023-03-22T12:53:29.911Z,94012.00
2023-03-22T12:57:29.880Z,94004.00
2023-03-22T13:01:29.907Z,94000.00
2023-03-22T13:05:29.786Z,93996.00
2023-03-22T13:09:29.787Z,93992.00
2023-03-22T13:13:29.713Z,93988.00
2023-03-22T13:17:29.837Z,93986.00
2023-03-22T13:21:29.657Z,93980.00
2023-03-22T13:25:29.606Z,93976.00
2023-03-22T13:29:29.551Z,93972.00
2023-03-22T13:33:29.517Z,93961.00
2023-03-22T13:37:29.645Z,93953.00
2023-03-22T13:41:29.816Z,93941.00
2023-03-22T13:45:29.863Z,93935.00
2023-03-22T13:49:29.944Z,93929.00
2023-03-22T13:53:30.053Z,93933.00
2023-03-22T13:57:30.097Z,93931.00
2023-03-22T14:01:30.321Z,93923.00
2023-03-22T14:05:30.203Z,93918.00
2023-03-22T14:09:30.285Z,93914.00
2023-03-22T14:13:30.340Z,93910.00
2023-03-22T14:17:30.457Z,93906.00
2023-03-22T14:21:30.499Z,93896.00
2023-03-22T14:46:21.901Z,93878.00
2023-03-22T14:50:21.899Z,93878.00
2023-03-22T14:54:21.985Z,93878.00
2023-03-22T14:58:21.903Z,93878.00
2023-03-22T15:02:21.947Z,93863.00
2023-03-22T15:06:21.511Z,93859.00
2023-03-22T15:10:21.507Z,93857.00
2023-03-22T15:14:21.438Z,93853.00
2023-03-22T15:18:21.412Z,93851.00
2023-03-22T15:22:21.363Z,93851.00
2023-03-22T15:26:21.339Z,93851.00
2023-03-22T15:30:21.310Z,93855.00
2023-03-22T15:34:21.247Z,93849.00
2023-03-22T15:38:27.139Z,93851.00
2023-03-22T15:42:22.190Z,93851.00
2023-03-22T15:46:21.269Z,93855.00
2023-03-22T15:50:21.181Z,93859.00
2023-03-22T15:54:21.153Z,93863.00
2023-03-22T15:58:23.066Z,93865.00
2023-03-22T16:02:21.093Z,93865.00
2023-03-22T16:06:21.028Z,93874.00
2023-03-22T16:10:21.005Z,93876.00
2023-03-22T16:14:20.974Z,93880.00
2023-03-22T16:18:20.925Z,93886.00
2023-03-22T16:22:20.921Z,93888.00
2023-03-22T16:26:20.908Z,93892.00
2023-03-22T16:30:20.825Z,93894.00
2023-03-22T16:34:20.791Z,93900.00
2023-03-22T16:38:20.766Z,93898.00
2023-03-22T16:42:20.731Z,93906.00
2023-03-22T16:46:20.711Z,93916.00
2023-03-22T16:50:20.640Z,93918.00
2023-03-22T16:54:20.611Z,93921.00
2023-03-22T16:58:20.574Z,93929.00
2023-03-22T17:02:20.550Z,93935.00
2023-03-22T17:06:20.498Z,93939.00
2023-03-22T17:10:20.478Z,93937.00
2023-03-22T17:14:20.443Z,93945.00
2023-03-22T17:18:20.528Z,93953.00
2023-03-22T17:22:20.653Z,93955.00
2023-03-22T17:26:20.814Z,93963.00
2023-03-22T17:30:20.902Z,93972.00
2023-03-22T17:34:20.981Z,93972.00
2023-03-22T17:38:27.098Z,93976.00
2023-03-22T17:42:22.127Z,93982.00
2023-03-22T17:50:21.011Z,93996.00
2023-03-22T17:54:57.064Z,94000.00
2023-03-22T17:58:35.124Z,94010.00
2023-03-22T18:02:27.252Z,94015.00
2023-03-22T18:06:21.873Z,94023.00
2023-03-22T18:10:20.838Z,94033.00
2023-03-22T18:14:27.059Z,94045.00
2023-03-22T18:18:21.764Z,94047.00
2023-03-22T18:22:20.728Z,94059.00
2023-03-22T18:26:28.471Z,94066.00
2023-03-22T18:30:21.670Z,94070.00
2023-03-22T18:34:20.612Z,94076.00
2023-03-22T18:38:55.867Z,94082.00
2023-03-22T18:42:25.418Z,94088.00
2023-03-22T18:46:21.544Z,94094.00
2023-03-22T18:50:20.459Z,94098.00
2023-03-22T18:54:20.429Z,94102.00
2023-03-22T18:58:20.401Z,94110.00
2023-03-22T19:02:35.462Z,94110.00
2023-03-22T19:06:21.495Z,94108.00
2023-03-22T19:10:20.506Z,94112.00
2023-03-22T19:15:11.136Z,94114.00
2023-03-22T19:18:21.206Z,94114.00
2023-03-22T19:22:20.507Z,94117.00
2023-03-22T19:26:20.506Z,94119.00
2023-03-22T19:30:20.524Z,94123.00
2023-03-22T19:34:20.079Z,94131.00
2023-03-22T19:38:20.035Z,94131.00
2023-03-22T19:42:20.014Z,94131.00
2023-03-22T19:46:20.014Z,94135.00
2023-03-22T19:50:19.927Z,94133.00
2023-03-22T19:58:19.868Z,94123.00
2023-03-22T20:02:19.818Z,94135.00
2023-03-22T20:06:20.320Z,94139.00
2023-03-22T20:10:19.782Z,94141.00
2023-03-22T20:14:19.731Z,94149.00
2023-03-22T20:18:19.673Z,94149.00
2023-03-22T20:22:19.672Z,94154.00
2023-03-22T20:26:19.615Z,94160.00
2023-03-22T20:30:19.563Z,94166.00
2023-03-22T20:34:19.569Z,94168.00
2023-03-22T20:38:19.484Z,94170.00
2023-03-22T20:42:19.448Z,94168.00
2023-03-22T20:46:19.429Z,94170.00
2023-03-22T20:50:19.397Z,94174.00
2023-03-22T20:54:19.584Z,94178.00
2023-03-22T20:58:19.306Z,94180.00
2023-03-22T21:02:19.258Z,94182.00
2023-03-22T21:06:19.244Z,94184.00
2023-03-22T21:10:19.196Z,94188.00
2023-03-22T21:14:19.157Z,94194.00
2023-03-22T21:18:19.120Z,94198.00
2023-03-22T21:22:19.101Z,94202.00
2023-03-22T21:26:19.072Z,94202.00
2023-03-22T21:30:19.089Z,94208.00
2023-03-22T21:34:19.113Z,94208.00
2023-03-22T21:38:19.161Z,94209.00
2023-03-22T21:42:19.198Z,94208.00
2023-03-22T21:46:19.228Z,94208.00
2023-03-22T21:50:19.264Z,94208.00
2023-03-22T21:54:19.321Z,94208.00
2023-03-22T21:58:19.325Z,94211.00
2023-03-22T22:02:19.380Z,94215.00
2023-03-22T22:06:19.393Z,94221.00
2023-03-22T22:10:19.426Z,94223.00
2023-03-22T22:14:19.449Z,94225.00
2023-03-22T22:18:19.497Z,94229.00
2023-03-22T22:22:19.543Z,94229.00
2023-03-22T22:26:19.618Z,94231.00
2023-03-22T22:30:19.741Z,94231.00
2023-03-22T22:34:19.722Z,94233.00
2023-03-22T22:38:19.768Z,94229.00
2023-03-22T22:42:19.833Z,94223.00
2023-03-22T22:46:19.897Z,94229.00
2023-03-22T22:50:19.957Z,94229.00
2023-03-22T22:54:20.056Z,94225.00
2023-03-22T22:58:20.104Z,94223.00
2023-03-22T23:02:20.150Z,94221.00
2023-03-22T23:06:20.233Z,94219.00
2023-03-22T23:10:20.297Z,94223.00
2023-03-22T23:14:21.870Z,94219.00
2023-03-22T23:18:20.329Z,94223.00
2023-03-22T23:22:20.291Z,94225.00
2023-03-22T23:26:20.246Z,94225.00
2023-03-22T23:30:20.228Z,94227.00
2023-03-22T23:34:20.169Z,94223.00
2023-03-22T23:38:20.129Z,94221.00
2023-03-22T23:42:20.103Z,94225.00
2023-03-22T23:46:20.051Z,94225.00
2023-03-22T23:50:20.027Z,94227.00
2023-03-22T23:54:19.998Z,94225.00
2023-03-22T23:58:19.941Z,94223.00
